Time;durP1;ratioP1;P1;durP2;ratioP2;P2;SDS_P1;SDS_P2;PMS_P1;PMS_P2;Temp;Humidity;BMP_temperature;BMP_pressure;BME280_temperature;BME280_humidity;BME280_pressure;Samples;Min_cycle;Max_cycle;Signal;HPM_P1;HPM_P2
2022/04/19 00:00:38;;;;;;;2.58;1.83;;;8.80;99.90;;;;;;5094754;28;20487;-73
2022/04/19 00:03:07;;;;;;;2.88;1.70;;;8.70;99.90;;;;;;5094372;28;20047;-75
2022/04/19 00:05:33;;;;;;;4.15;2.05;;;8.70;99.90;;;;;;5094706;28;20055;-74
2022/04/19 00:08:06;;;;;;;2.22;1.30;;;8.90;99.90;;;;;;5094306;28;20123;-74
2022/04/19 00:10:32;;;;;;;2.67;1.30;;;8.60;99.90;;;;;;5094373;28;20096;-73
2022/04/19 00:13:01;;;;;;;2.60;1.60;;;8.60;99.90;;;;;;5094245;28;20082;-74
2022/04/19 00:15:28;;;;;;;1.60;1.40;;;8.50;99.90;;;;;;5094197;28;20040;-73
2022/04/19 00:17:58;;;;;;;2.13;1.30;;;8.50;99.90;;;;;;5094100;28;20041;-74
2022/04/19 00:20:25;;;;;;;1.45;1.13;;;8.50;99.90;;;;;;5094300;28;20036;-74
2022/04/19 00:22:52;;;;;;;2.53;1.85;;;8.40;99.90;;;;;;5093929;28;20055;-74
2022/04/19 00:25:19;;;;;;;1.75;1.15;;;9.30;99.90;;;;;;5094011;28;20075;-74
2022/04/19 00:27:45;;;;;;;3.35;2.28;;;8.40;99.90;;;;;;5077145;28;20055;-73
2022/04/19 00:30:11;;;;;;;4.25;1.98;;;8.30;99.90;;;;;;5094180;28;20043;-74
2022/04/19 00:32:38;;;;;;;2.67;1.30;;;8.30;99.90;;;;;;5077023;28;20441;-74
2022/04/19 00:35:09;;;;;;;2.30;1.55;;;8.20;99.90;;;;;;5093772;28;20051;-73
2022/04/19 00:37:35;;;;;;;;;;;8.20;99.90;;;;;;5077338;28;20039;-73
2022/04/19 00:40:05;;;;;;;2.78;1.85;;;8.20;99.90;;;;;;5093905;28;19923;-73
2022/04/19 00:42:32;;;;;;;2.13;1.50;;;8.10;99.90;;;;;;5093643;28;20104;-74
2022/04/19 00:44:59;;;;;;;3.67;1.67;;;8.10;99.90;;;;;;5093593;28;20040;-73
2022/04/19 00:47:26;;;;;;;5.07;1.70;;;8.50;99.90;;;;;;5093645;28;20035;-74
2022/04/19 00:49:52;;;;;;;2.55;1.45;;;8.00;99.90;;;;;;5092768;28;20080;-73
2022/04/19 00:52:19;;;;;;;4.18;2.42;;;8.00;99.90;;;;;;5093578;28;20047;-73
2022/04/19 00:54:46;;;;;;;3.05;1.95;;;7.90;99.90;;;;;;5093360;28;20051;-73
2022/04/19 00:57:13;;;;;;;3.85;1.98;;;7.90;99.90;;;;;;5093423;28;20120;-73
2022/04/19 00:59:39;;;;;;;2.13;1.52;;;7.90;99.90;;;;;;5093337;28;20044;-73
2022/04/19 01:02:05;;;;;;;3.58;1.90;;;7.80;99.90;;;;;;5093319;28;20043;-73
2022/04/19 01:04:31;;;;;;;4.70;1.77;;;7.80;99.90;;;;;;5093198;28;20035;-74
2022/04/19 01:06:58;;;;;;;2.58;1.80;;;7.70;99.90;;;;;;5093465;28;20055;-74
2022/04/19 01:09:24;;;;;;;7.05;1.67;;;7.70;99.90;;;;;;5093238;28;20044;-73
2022/04/19 01:14:38;;;;;;;2.05;1.45;;;7.70;99.90;;;;;;5093245;28;20046;-73
2022/04/19 01:17:06;;;;;;;5.25;1.92;;;7.70;99.90;;;;;;5059518;28;20411;-74
2022/04/19 01:19:35;;;;;;;5.18;1.63;;;7.70;99.90;;;;;;5093089;28;20131;-74
2022/04/19 01:22:01;;;;;;;4.50;2.33;;;8.50;99.90;;;;;;5076099;28;20050;-73
2022/04/19 01:24:26;;;;;;;1.75;1.27;;;7.70;99.90;;;;;;5092850;28;20040;-74
2022/04/19 01:26:57;;;;;;;3.92;2.30;;;7.60;99.90;;;;;;5075646;28;20060;-73
2022/04/19 01:29:24;;;;;;;1.77;1.42;;;7.60;99.90;;;;;;5059279;28;20081;-74
2022/04/19 01:31:51;;;;;;;2.03;1.48;;;7.60;99.90;;;;;;5092540;28;20036;-73
2022/04/19 01:34:18;;;;;;;3.00;1.55;;;7.60;99.90;;;;;;5076048;28;20487;-73
2022/04/19 01:36:44;;;;;;;3.33;2.38;;;7.60;99.90;;;;;;5092647;28;20036;-74
2022/04/19 01:39:11;;;;;;;3.90;1.83;;;7.50;99.90;;;;;;5092911;28;20503;-73
2022/04/19 01:41:38;;;;;;;5.25;1.75;;;7.50;99.90;;;;;;5092830;28;20043;-74
2022/04/19 01:44:07;;;;;;;3.60;2.10;;;7.50;99.90;;;;;;5092462;28;20052;-73
2022/04/19 01:46:33;;;;;;;3.50;2.30;;;7.50;99.90;;;;;;5075579;28;20051;-73
2022/04/19 01:49:01;;;;;;;4.65;2.13;;;7.40;99.90;;;;;;5075580;28;20119;-73
2022/04/19 01:51:27;;;;;;;3.45;1.83;;;7.30;99.90;;;;;;5092436;28;20159;-74
2022/04/19 01:53:54;;;;;;;4.20;2.25;;;7.40;99.90;;;;;;5092415;28;20134;-73
2022/04/19 01:56:20;;;;;;;3.10;1.88;;;7.30;99.90;;;;;;5075447;28;20036;-74
2022/04/19 01:58:45;;;;;;;2.33;2.03;;;7.30;99.90;;;;;;5075373;28;20051;-74
2022/04/19 02:01:11;;;;;;;3.95;2.50;;;7.30;99.90;;;;;;5092524;28;20097;-73
2022/04/19 02:03:37;;;;;;;4.20;2.28;;;7.20;99.90;;;;;;5075250;28;20560;-74
2022/04/19 02:06:08;;;;;;;4.93;2.67;;;7.30;99.90;;;;;;5075282;28;20044;-74
2022/04/19 02:08:34;;;;;;;2.88;2.20;;;7.20;99.90;;;;;;5092079;28;20047;-74
2022/04/19 02:11:00;;;;;;;4.03;2.95;;;7.20;99.90;;;;;;5092331;28;20404;-73
2022/04/19 02:13:26;;;;;;;2.90;1.92;;;7.20;99.90;;;;;;5092094;28;20040;-74
2022/04/19 02:15:52;;;;;;;5.75;2.55;;;7.20;99.90;;;;;;5092241;28;20109;-73
2022/04/19 02:18:19;;;;;;;4.03;1.77;;;7.40;99.90;;;;;;5091988;28;20075;-74
2022/04/19 02:20:45;;;;;;;2.28;1.75;;;7.20;99.90;;;;;;5092265;28;20123;-74
2022/04/19 02:23:13;;;;;;;3.58;2.22;;;7.20;99.90;;;;;;5075087;28;20119;-73
2022/04/19 02:25:39;;;;;;;3.08;1.90;;;7.20;99.90;;;;;;5075211;28;20503;-73
2022/04/19 02:28:06;;;;;;;5.38;2.72;;;7.20;99.90;;;;;;5091517;28;20131;-72
2022/04/19 02:30:32;;;;;;;3.67;2.38;;;7.10;99.90;;;;;;5074936;28;20302;-73
2022/04/19 02:32:58;;;;;;;2.78;1.55;;;7.10;99.90;;;;;;5091856;28;20039;-73
2022/04/19 02:35:27;;;;;;;11.82;2.45;;;7.10;99.90;;;;;;5092107;28;20554;-74
2022/04/19 02:37:57;;;;;;;3.53;2.20;;;7.40;99.90;;;;;;5091913;28;20074;-73
2022/04/19 02:40:25;;;;;;;6.68;2.60;;;7.00;99.90;;;;;;5091767;28;20039;-74
2022/04/19 02:42:54;;;;;;;1.80;1.63;;;7.00;99.90;;;;;;5074783;28;20052;-73
2022/04/19 02:45:22;;;;;;;3.38;1.98;;;7.00;99.90;;;;;;5091785;28;20040;-73
2022/04/19 02:47:49;;;;;;;4.47;2.25;;;6.90;99.90;;;;;;5091837;28;20118;-73
2022/04/19 02:50:16;;;;;;;2.00;1.83;;;7.60;99.90;;;;;;5091822;28;20032;-73
2022/04/19 02:52:42;;;;;;;5.10;2.78;;;6.90;99.90;;;;;;5091608;28;20047;-73
2022/04/19 02:55:08;;;;;;;5.15;2.95;;;6.90;99.90;;;;;;5091892;28;20510;-72
2022/04/19 02:57:34;;;;;;;6.20;2.05;;;6.80;99.90;;;;;;5091543;28;20130;-73
2022/04/19 03:00:00;;;;;;;4.05;3.03;;;6.90;99.90;;;;;;5074819;28;20047;-72
2022/04/19 03:02:26;;;;;;;4.28;2.25;;;6.80;99.90;;;;;;5091414;28;20040;-73
2022/04/19 03:04:52;;;;;;;2.90;1.95;;;6.80;99.90;;;;;;5091607;28;20039;-73
2022/04/19 03:07:17;;;;;;;6.90;2.35;;;6.90;99.90;;;;;;5074600;28;20044;-73
2022/04/19 03:09:43;;;;;;;4.60;2.72;;;6.80;99.90;;;;;;5074646;28;20059;-72
2022/04/19 03:12:14;;;;;;;3.85;2.65;;;6.80;99.90;;;;;;5091451;28;20414;-73
2022/04/19 03:14:41;;;;;;;;;;;6.70;99.90;;;;;;5094591;28;20079;-72
2022/04/19 03:17:07;;;;;;;3.63;2.63;;;6.70;99.90;;;;;;5095717;28;19959;-73
2022/04/19 03:19:33;;;;;;;4.25;2.53;;;6.70;99.90;;;;;;5095434;28;20040;-73
2022/04/19 03:21:59;;;;;;;4.38;3.05;;;6.70;99.90;;;;;;5095378;28;20036;-72
2022/04/19 03:27:46;;;;;;;4.10;2.95;;;6.60;99.90;;;;;;5045424;28;20056;-73
2022/04/19 03:30:15;;;;;;;3.38;2.08;;;6.60;99.90;;;;;;5092077;28;20063;-73
2022/04/19 03:32:44;;;;;;;5.90;2.70;;;6.60;99.90;;;;;;5095127;28;20046;-72
2022/04/19 03:35:11;;;;;;;4.80;2.45;;;6.60;99.90;;;;;;5094958;28;20040;-73
2022/04/19 03:37:39;;;;;;;3.13;2.10;;;7.10;99.90;;;;;;5095226;28;20458;-73
2022/04/19 03:40:06;;;;;;;4.40;2.22;;;6.50;99.90;;;;;;5096199;28;20519;-72
2022/04/19 03:42:32;;;;;;;4.85;2.10;;;6.50;99.90;;;;;;5094836;28;20228;-73
2022/04/19 03:44:58;;;;;;;3.80;2.65;;;6.50;99.90;;;;;;5078078;28;20122;-72
2022/04/19 03:47:23;;;;;;;2.22;1.60;;;6.80;99.90;;;;;;5095061;28;20498;-73
2022/04/19 03:49:49;;;;;;;4.05;2.30;;;6.50;99.90;;;;;;5094750;28;20177;-73
2022/04/19 03:52:15;;;;;;;1.85;1.52;;;6.50;99.90;;;;;;5077771;28;20126;-73
2022/04/19 03:54:40;;;;;;;6.85;2.20;;;6.90;99.90;;;;;;5094727;28;20035;-72
2022/04/19 03:57:08;;;;;;;3.72;2.55;;;7.10;99.90;;;;;;5077549;28;20089;-73
2022/04/19 03:59:38;;;;;;;3.55;2.00;;;6.40;99.90;;;;;;5094552;28;20097;-73
2022/04/19 04:02:04;;;;;;;4.03;2.08;;;6.40;99.90;;;;;;5078078;28;20044;-73
2022/04/19 04:04:31;;;;;;;8.98;2.40;;;6.30;99.90;;;;;;5094442;28;20089;-73
2022/04/19 04:07:00;;;;;;;3.20;2.03;;;6.90;99.90;;;;;;5094473;28;20051;-74
2022/04/19 04:09:32;;;;;;;3.65;1.65;;;6.30;99.90;;;;;;5094349;28;20042;-74
2022/04/19 04:12:02;;;;;;;3.60;2.60;;;6.50;99.90;;;;;;5094767;28;20039;-74
2022/04/19 04:14:32;;;;;;;5.77;1.83;;;6.30;99.90;;;;;;5061597;28;20047;-74
2022/04/19 04:16:58;;;;;;;3.47;2.13;;;6.30;99.90;;;;;;5077541;28;20051;-74
2022/04/19 04:19:23;;;;;;;4.47;2.15;;;6.30;99.90;;;;;;5094279;28;20036;-73
2022/04/19 04:21:49;;;;;;;2.95;1.80;;;6.30;99.90;;;;;;5094433;28;20364;-73
2022/04/19 04:24:15;;;;;;;4.80;2.38;;;6.20;99.90;;;;;;5093881;28;20040;-74
2022/04/19 04:26:41;;;;;;;2.55;2.05;;;6.40;99.90;;;;;;5092923;28;20063;-73
2022/04/19 04:29:07;;;;;;;3.20;1.88;;;6.20;99.90;;;;;;5094076;28;20411;-74
2022/04/19 04:31:33;;;;;;;4.68;2.50;;;6.80;99.90;;;;;;5094171;28;20137;-74
2022/04/19 04:33:59;;;;;;;3.75;2.65;;;6.10;99.90;;;;;;5077506;28;20044;-74
2022/04/19 04:36:25;;;;;;;5.90;2.45;;;6.70;99.90;;;;;;5093889;28;20052;-73
2022/04/19 04:38:51;;;;;;;5.13;1.92;;;6.00;99.90;;;;;;5093863;28;20097;-73
2022/04/19 04:41:17;;;;;;;4.72;2.13;;;6.60;99.90;;;;;;5093970;28;20477;-74
2022/04/19 04:43:43;;;;;;;3.28;2.33;;;6.20;99.90;;;;;;5093871;28;20422;-74
2022/04/19 04:51:38;;;;;;;6.30;1.55;;;6.00;99.90;;;;;;5093748;28;20047;-73
2022/04/19 04:54:03;;;;;;;4.20;2.45;;;6.10;99.90;;;;;;5076786;28;20035;-74
2022/04/19 04:56:29;;;;;;;4.15;1.95;;;5.90;99.90;;;;;;5093577;28;20050;-74
2022/04/19 04:58:55;;;;;;;3.13;1.75;;;6.00;99.90;;;;;;5076964;28;20398;-75
2022/04/19 05:01:21;;;;;;;4.32;2.30;;;6.20;99.90;;;;;;5076598;28;20123;-74
2022/04/19 05:03:47;;;;;;;3.05;1.90;;;5.90;99.90;;;;;;5093213;28;20450;-73
2022/04/19 05:06:12;;;;;;;3.75;1.73;;;5.90;99.90;;;;;;5093352;28;20076;-74
2022/04/19 05:08:38;;;;;;;2.47;2.05;;;6.00;99.90;;;;;;5093322;28;20123;-73
2022/04/19 05:11:04;;;;;;;3.08;1.90;;;6.00;99.90;;;;;;5093157;28;20032;-74
2022/04/19 05:13:30;;;;;;;3.40;1.65;;;6.00;99.90;;;;;;5093189;28;20410;-73
2022/04/19 05:15:58;;;;;;;2.00;1.58;;;6.40;99.90;;;;;;5076497;28;20070;-73
2022/04/19 05:18:25;;;;;;;3.55;2.60;;;6.10;99.90;;;;;;5093052;28;20047;-73
2022/04/19 05:20:50;;;;;;;3.92;2.40;;;6.20;99.90;;;;;;5093222;28;20487;-73
2022/04/19 05:23:16;;;;;;;2.47;1.75;;;6.30;99.90;;;;;;5093001;28;20047;-73
2022/04/19 05:25:41;;;;;;;2.88;1.48;;;6.30;99.90;;;;;;5093144;28;20036;-73
2022/04/19 05:28:07;;;;;;;3.35;2.35;;;7.00;99.90;;;;;;5092679;28;20052;-74
2022/04/19 05:30:33;;;;;;;4.80;2.20;;;6.40;99.90;;;;;;5076060;28;20376;-73
2022/04/19 05:32:59;;;;;;;3.47;1.52;;;7.20;99.90;;;;;;5092709;28;20558;-73
2022/04/19 05:35:24;;;;;;;4.13;1.83;;;7.30;99.90;;;;;;5092864;28;20445;-75
2022/04/19 05:37:50;;;;;;;4.75;2.47;;;6.50;99.90;;;;;;5075487;28;20410;-73
2022/04/19 05:40:16;;;;;;;4.70;2.35;;;6.70;99.90;;;;;;5059183;28;20047;-74
2022/04/19 05:42:42;;;;;;;2.60;1.67;;;6.80;99.90;;;;;;5059040;28;20044;-74
2022/04/19 05:45:08;;;;;;;3.05;1.70;;;7.00;99.90;;;;;;5076006;28;20040;-74
2022/04/19 05:47:34;;;;;;;4.50;1.65;;;7.10;99.90;;;;;;5092693;28;20071;-76
2022/04/19 05:49:59;;;;;;;3.50;1.88;;;7.10;99.90;;;;;;5092925;28;20082;-76
2022/04/19 05:52:25;;;;;;;6.40;2.40;;;7.30;99.90;;;;;;5092577;28;20036;-74
2022/04/19 05:54:51;;;;;;;3.33;1.85;;;7.40;99.90;;;;;;5092758;28;20044;-76
2022/04/19 05:57:16;;;;;;;5.15;2.25;;;7.30;99.90;;;;;;5092585;28;20050;-78
2022/04/19 05:59:42;;;;;;;6.75;2.38;;;7.50;99.90;;;;;;5092241;28;20044;-74
2022/04/19 06:04:52;;;;;;;4.22;2.40;;;7.70;99.90;;;;;;5092354;28;20121;-75
2022/04/19 06:07:19;;;;;;;3.95;1.88;;;7.80;99.90;;;;;;5075521;28;20044;-73
2022/04/19 06:09:45;;;;;;;2.58;1.80;;;7.90;99.90;;;;;;5092263;28;20040;-73
2022/04/19 06:12:11;;;;;;;3.38;2.03;;;8.00;99.90;;;;;;5092090;28;20044;-74
2022/04/19 06:14:37;;;;;;;4.80;2.20;;;8.10;99.90;;;;;;5075173;28;20036;-73
2022/04/19 06:17:03;;;;;;;3.00;1.80;;;8.20;99.90;;;;;;5075076;28;20040;-75
2022/04/19 06:19:29;;;;;;;5.75;1.88;;;8.20;99.90;;;;;;5091893;28;20036;-74
2022/04/19 06:21:57;;;;;;;4.10;2.38;;;8.40;99.90;;;;;;5074944;28;20043;-75
2022/04/19 06:24:24;;;;;;;3.50;1.98;;;8.40;99.90;;;;;;5058639;28;20407;-74
2022/04/19 06:26:50;;;;;;;3.80;1.98;;;8.60;99.90;;;;;;5074731;28;20056;-74
2022/04/19 06:29:16;;;;;;;4.95;2.33;;;9.40;99.90;;;;;;5091832;28;20032;-74
2022/04/19 06:31:45;;;;;;;4.05;2.72;;;9.60;99.90;;;;;;5091981;28;20584;-73
2022/04/19 06:34:11;;;;;;;3.00;1.75;;;9.00;99.90;;;;;;5091712;28;20101;-74
2022/04/19 06:36:37;;;;;;;3.88;2.33;;;9.20;99.90;;;;;;5075252;28;20098;-74
2022/04/19 06:39:04;;;;;;;4.15;2.17;;;9.30;99.90;;;;;;5091873;28;20036;-74
2022/04/19 06:41:29;;;;;;;5.28;2.53;;;9.50;99.90;;;;;;5074874;28;20046;-74
2022/04/19 06:43:58;;;;;;;3.40;1.85;;;9.60;99.90;;;;;;5091678;28;20411;-74
2022/04/19 06:46:27;;;;;;;2.15;1.83;;;10.00;99.90;;;;;;5091827;28;20079;-73
2022/04/19 06:49:02;;;;;;;3.58;1.95;;;10.00;99.90;;;;;;5090726;28;20047;-74
2022/04/19 06:51:30;;;;;;;2.05;1.45;;;10.10;99.90;;;;;;5076257;28;20044;-74
2022/04/19 06:53:56;;;;;;;4.00;2.20;;;10.30;99.90;;;;;;5091352;28;20040;-74
2022/04/19 06:56:22;;;;;;;2.17;1.20;;;10.50;99.90;;;;;;5091406;28;20403;-73
2022/04/19 06:58:49;;;;;;;3.20;1.95;;;10.60;99.90;;;;;;5091534;28;20051;-73
2022/04/19 07:01:15;;;;;;;4.45;2.13;;;10.70;99.90;;;;;;5091559;28;20483;-73
2022/04/19 07:03:41;;;;;;;4.10;2.28;;;10.90;99.90;;;;;;5057685;28;20048;-74
2022/04/19 07:06:06;;;;;;;4.18;2.05;;;11.00;99.90;;;;;;5091410;28;20028;-74
2022/04/19 07:08:32;;;;;;;5.30;2.45;;;11.20;99.90;;;;;;5091230;28;20086;-75
2022/04/19 07:11:00;;;;;;;4.07;2.10;;;11.30;99.90;;;;;;5074414;28;20040;-74
2022/04/19 07:13:27;;;;;;;4.65;1.83;;;11.50;99.90;;;;;;5058084;28;20036;-74
2022/04/19 07:15:53;;;;;;;3.45;1.73;;;11.80;99.90;;;;;;5074521;28;20039;-74
2022/04/19 07:18:23;;;;;;;3.20;1.90;;;11.70;99.90;;;;;;5091175;28;20040;-75
2022/04/19 07:26:47;;;;;;;5.38;2.25;;;12.20;99.90;;;;;;5073124;28;20040;-75
2022/04/19 07:29:18;;;;;;;5.03;1.98;;;12.40;99.90;;;;;;5074167;28;20100;-75
2022/04/19 07:31:46;;;;;;;3.53;1.88;;;12.40;99.90;;;;;;5091148;28;20043;-75
2022/04/19 07:34:13;;;;;;;3.40;1.67;;;12.30;99.90;;;;;;5074990;28;20469;-75
2022/04/19 07:36:40;;;;;;;3.53;1.95;;;12.70;99.90;;;;;;5074408;28;20046;-75
2022/04/19 07:39:10;;;;;;;2.65;1.52;;;12.70;99.90;;;;;;5091103;28;20052;-76
2022/04/19 07:41:37;;;;;;;4.97;1.77;;;12.90;99.90;;;;;;5074865;28;20126;-75
2022/04/19 07:44:04;;;;;;;3.33;1.60;;;13.00;99.90;;;;;;5091090;28;20056;-75
2022/04/19 07:46:33;;;;;;;3.58;1.75;;;13.00;99.90;;;;;;5074550;28;20105;-75
2022/04/19 07:48:59;;;;;;;3.53;1.40;;;13.10;99.90;;;;;;5074203;28;20031;-75
2022/04/19 07:51:25;;;;;;;5.05;1.95;;;13.20;99.90;;;;;;5091335;28;20130;-74
2022/04/19 07:53:52;;;;;;;4.55;1.88;;;13.40;99.90;;;;;;5091028;28;20048;-75
2022/04/19 07:56:18;;;;;;;2.33;1.67;;;13.20;99.90;;;;;;5090992;28;20129;-75
2022/04/19 07:58:47;;;;;;;2.53;1.40;;;13.30;99.90;;;;;;5074340;28;20036;-75
2022/04/19 08:01:14;;;;;;;5.53;1.60;;;13.30;99.90;;;;;;5077483;28;20048;-76
2022/04/19 08:03:40;;;;;;;2.80;1.48;;;13.40;99.90;;;;;;5094640;28;20514;-76
2022/04/19 08:06:06;;;;;;;2.80;1.42;;;13.50;99.90;;;;;;5094526;28;20044;-75
2022/04/19 08:08:32;;;;;;;3.05;1.52;;;13.60;99.90;;;;;;5077544;28;20123;-75
2022/04/19 08:10:58;;;;;;;1.50;1.05;;;13.70;99.90;;;;;;5077550;28;20040;-73
2022/04/19 08:13:24;;;;;;;5.43;2.22;;;13.80;99.90;;;;;;5077672;28;20373;-74
2022/04/19 08:15:50;;;;;;;3.00;1.65;;;13.90;99.90;;;;;;5094554;28;20536;-74
2022/04/19 08:18:18;;;;;;;1.98;1.45;;;14.00;99.90;;;;;;5077342;28;20044;-74
2022/04/19 08:20:45;;;;;;;2.10;1.40;;;14.00;99.90;;;;;;5077257;28;20036;-74
2022/04/19 08:23:12;;;;;;;2.13;1.23;;;14.10;99.90;;;;;;5077209;28;20055;-74
2022/04/19 08:25:40;;;;;;;2.20;1.50;;;14.20;99.90;;;;;;5077339;28;20112;-74
2022/04/19 08:28:06;;;;;;;2.40;1.55;;;14.20;99.90;;;;;;5094216;28;20050;-74
2022/04/19 08:30:32;;;;;;;1.95;1.20;;;14.40;99.90;;;;;;5076974;28;20036;-73
2022/04/19 08:32:58;;;;;;;2.83;1.42;;;14.40;99.90;;;;;;5094174;28;20517;-73
2022/04/19 08:35:24;;;;;;;2.45;1.27;;;14.50;99.00;;;;;;5077102;28;20040;-74
2022/04/19 08:37:51;;;;;;;3.00;1.65;;;14.60;99.70;;;;;;5094092;28;20479;-74
2022/04/19 08:40:18;;;;;;;2.08;1.08;;;14.60;98.50;;;;;;5093802;28;20044;-74
2022/04/19 08:42:44;;;;;;;1.75;1.10;;;14.80;98.30;;;;;;5093881;28;20074;-74
2022/04/19 08:45:15;;;;;;;1.83;1.27;;;14.80;97.20;;;;;;5076699;28;20032;-74
2022/04/19 08:47:48;;;;;;;1.75;0.95;;;14.80;97.00;;;;;;5077804;28;20401;-76
2022/04/19 08:50:18;;;;;;;1.67;0.77;;;14.90;96.10;;;;;;5076870;28;20098;-74
2022/04/19 08:52:45;;;;;;;0.98;0.75;;;15.00;95.70;;;;;;5059960;28;20032;-75
2022/04/19 08:57:56;;;;;;;1.10;0.80;;;15.10;95.00;;;;;;5093813;28;20567;-75
2022/04/19 09:00:23;;;;;;;0.90;0.80;;;15.40;94.30;;;;;;5093469;28;20131;-75
2022/04/19 09:02:54;;;;;;;0.95;0.60;;;15.10;92.20;;;;;;5093385;28;20052;-75
2022/04/19 09:05:23;;;;;;;0.60;0.50;;;15.10;92.00;;;;;;5077605;28;20043;-74
2022/04/19 09:07:50;;;;;;;0.52;0.50;;;15.00;91.70;;;;;;5093358;28;20047;-75
2022/04/19 09:10:42;;;;;;;1.02;0.55;;;15.10;92.30;;;;;;5076477;28;20092;-75
2022/04/19 09:13:10;;;;;;;0.80;0.50;;;15.30;92.80;;;;;;5092985;28;20044;-74
2022/04/19 09:15:41;;;;;;;0.85;0.32;;;15.20;91.60;;;;;;5093096;28;20165;-74
2022/04/19 09:18:29;;;;;;;0.60;0.40;;;15.20;91.50;;;;;;5093093;28;20046;-74
2022/04/19 09:20:56;;;;;;;0.98;0.70;;;15.20;91.10;;;;;;5093243;28;20052;-74
2022/04/19 09:23:22;;;;;;;0.40;0.38;;;15.30;91.70;;;;;;5076513;28;20032;-74
2022/04/19 09:26:08;;;;;;;1.02;0.75;;;15.30;91.80;;;;;;5076175;28;20047;-75
2022/04/19 09:28:34;;;;;;;0.35;0.35;;;15.50;91.80;;;;;;5075803;28;20044;-74
2022/04/19 09:31:07;;;;;;;0.85;0.55;;;15.50;91.80;;;;;;5092852;28;20048;-74
2022/04/19 09:33:33;;;;;;;1.30;0.57;;;15.60;91.80;;;;;;5092838;28;20047;-74
2022/04/19 09:36:02;;;;;;;2.00;0.60;;;15.70;91.70;;;;;;5075781;28;20047;-74
2022/04/19 09:38:38;;;;;;;0.93;0.70;;;15.70;91.50;;;;;;5075784;28;20080;-76
2022/04/19 09:41:05;;;;;;;1.38;0.60;;;15.70;91.40;;;;;;5092822;28;20040;-73
2022/04/19 09:43:32;;;;;;;1.13;0.82;;;15.90;91.90;;;;;;5092609;28;20402;-75
2022/04/19 09:46:03;;;;;;;2.28;0.68;;;15.90;90.60;;;;;;5092420;28;20190;-73
2022/04/19 09:48:36;;;;;;;0.75;0.52;;;15.90;91.10;;;;;;5092543;28;20086;-74
2022/04/19 09:51:04;;;;;;;0.98;0.68;;;16.00;90.60;;;;;;5092510;28;20044;-75
2022/04/19 09:53:50;;;;;;;1.05;0.70;;;16.20;91.40;;;;;;5075476;28;20051;-74
2022/04/19 09:56:18;;;;;;;0.75;0.60;;;16.30;91.40;;;;;;5075202;28;20109;-73
2022/04/19 09:58:46;;;;;;;0.68;0.45;;;16.40;90.90;;;;;;5092158;28;20042;-74
2022/04/19 10:09:35;;;;;;;0.77;0.60;;;16.40;91.10;;;;;;5092413;28;20040;-76
2022/04/19 10:12:02;;;;;;;1.75;1.20;;;16.40;90.50;;;;;;5092293;28;20036;-74
2022/04/19 10:14:30;;;;;;;1.40;0.75;;;16.40;90.20;;;;;;5092034;28;20036;-75
2022/04/19 10:17:00;;;;;;;0.57;0.47;;;16.60;91.30;;;;;;5075352;28;20040;-75
2022/04/19 10:19:29;;;;;;;3.35;0.60;;;16.60;90.70;;;;;;5058430;28;20127;-75
2022/04/19 10:21:58;;;;;;;1.77;0.60;;;16.80;90.10;;;;;;5075426;28;20417;-74
2022/04/19 10:24:27;;;;;;;0.60;0.50;;;16.80;89.20;;;;;;5074415;28;20135;-76
2022/04/19 10:26:52;;;;;;;1.40;0.93;;;16.90;88.70;;;;;;5074983;28;20055;-74
2022/04/19 10:29:21;;;;;;;2.10;0.82;;;16.90;90.10;;;;;;5058335;28;20465;-74
2022/04/19 10:31:54;;;;;;;0.63;0.63;;;16.90;90.60;;;;;;5091714;28;20036;-74
2022/04/19 10:34:25;;;;;;;1.08;0.85;;;16.80;89.90;;;;;;5091689;28;20044;-74
2022/04/19 10:36:54;;;;;;;1.35;0.73;;;17.00;90.50;;;;;;5091975;28;20503;-74
2022/04/19 10:39:22;;;;;;;2.58;0.63;;;17.00;88.90;;;;;;5075369;28;20048;-73
2022/04/19 10:41:56;;;;;;;1.48;0.88;;;16.90;89.30;;;;;;5091589;28;20044;-74
2022/04/19 10:44:40;;;;;;;1.85;0.88;;;16.80;87.50;;;;;;5075170;28;20443;-76
2022/04/19 10:47:17;;;;;;;1.38;0.90;;;16.70;87.10;;;;;;5074764;28;20071;-75
2022/04/19 10:49:47;;;;;;;1.00;0.93;;;16.70;88.80;;;;;;5091471;28;20097;-74
2022/04/19 10:52:40;;;;;;;1.05;0.63;;;16.60;88.30;;;;;;5091549;28;20079;-74
2022/04/19 10:55:16;;;;;;;0.90;0.80;;;16.70;88.50;;;;;;5091743;28;20051;-74
2022/04/19 10:58:09;;;;;;;1.60;0.75;;;16.70;89.00;;;;;;5091410;28;20052;-74
2022/04/19 11:00:41;;;;;;;1.33;1.15;;;16.70;87.00;;;;;;5091481;28;20044;-75
2022/04/19 11:03:10;;;;;;;1.17;0.63;;;16.70;87.20;;;;;;5091363;28;20136;-75
2022/04/19 11:05:38;;;;;;;2.87;1.27;;;16.60;88.30;;;;;;5091246;28;20089;-74
2022/04/19 11:08:24;;;;;;;3.47;1.05;;;16.70;88.80;;;;;;5074345;28;20112;-74
2022/04/19 11:11:02;;;;;;;4.60;1.55;;;16.60;89.00;;;;;;5091540;28;20072;-76
2022/04/19 11:13:35;;;;;;;3.42;1.13;;;16.60;88.60;;;;;;5091578;28;20055;-74
2022/04/19 11:16:12;;;;;;;2.05;1.40;;;16.60;90.00;;;;;;5091641;28;20044;-74
2022/04/19 11:18:37;;;;;;;3.05;1.35;;;16.70;90.00;;;;;;5091746;28;20103;-74
2022/04/19 11:21:06;;;;;;;2.22;0.82;;;16.60;88.10;;;;;;5091220;28;20040;-75
2022/04/19 11:23:49;;;;;;;3.05;0.98;;;17.00;88.90;;;;;;5091258;28;20040;-76
2022/04/19 11:26:33;;;;;;;2.05;0.85;;;16.70;87.30;;;;;;5091293;28;20044;-74
2022/04/19 11:29:08;;;;;;;1.38;1.20;;;16.70;88.20;;;;;;5074359;28;20089;-76
2022/04/19 11:31:35;;;;;;;1.42;0.77;;;16.70;85.40;;;;;;5091460;28;20040;-76
2022/04/19 11:34:09;;;;;;;2.28;0.90;;;16.70;86.70;;;;;;5091295;28;20046;-74
2022/04/19 11:36:36;;;;;;;1.38;0.60;;;16.60;85.90;;;;;;5079546;28;20044;-76
2022/04/19 11:39:02;;;;;;;3.40;0.90;;;16.70;86.70;;;;;;5094988;28;20055;-74
2022/04/19 11:46:51;;;;;;;1.73;0.88;;;16.90;86.10;;;;;;5095087;28;20059;-74
2022/04/19 11:49:19;;;;;;;1.20;0.82;;;17.00;86.50;;;;;;5077857;28;20047;-75
2022/04/19 11:51:51;;;;;;;1.65;1.00;;;17.10;87.00;;;;;;5094659;28;20032;-76
2022/04/19 11:54:28;;;;;;;0.70;0.50;;;17.00;86.80;;;;;;5077795;28;20039;-75
2022/04/19 11:57:08;;;;;;;5.38;0.90;;;17.20;87.50;;;;;;5094914;28;20039;-75
2022/04/19 11:59:39;;;;;;;0.87;0.77;;;17.20;86.30;;;;;;5095070;28;20048;-75
2022/04/19 12:02:19;;;;;;;3.85;0.47;;;17.10;85.40;;;;;;5077674;28;20282;-75
2022/04/19 12:05:06;;;;;;;0.68;0.60;;;17.20;82.80;;;;;;5094534;28;20093;-74
2022/04/19 12:07:32;;;;;;;0.90;0.68;;;17.10;83.90;;;;;;5077537;28;20074;-73
2022/04/19 12:10:01;;;;;;;0.85;0.50;;;17.20;85.00;;;;;;5077870;28;20071;-74
2022/04/19 12:12:27;;;;;;;1.95;1.17;;;17.20;83.40;;;;;;5094464;28;20092;-74
2022/04/19 12:14:53;;;;;;;1.85;0.93;;;17.30;85.80;;;;;;5094287;28;20048;-73
2022/04/19 12:17:20;;;;;;;0.85;0.80;;;17.30;84.90;;;;;;5094343;28;20072;-74
2022/04/19 12:19:46;;;;;;;2.17;0.93;;;17.40;84.80;;;;;;5094277;28;20044;-75
2022/04/19 12:22:23;;;;;;;1.60;0.80;;;17.50;84.80;;;;;;5077302;28;20048;-73
2022/04/19 12:24:55;;;;;;;0.93;0.77;;;17.60;85.60;;;;;;5093980;28;20084;-74
2022/04/19 12:27:32;;;;;;;0.75;0.50;;;17.60;84.30;;;;;;5093924;28;20055;-74
2022/04/19 12:30:08;;;;;;;2.03;0.90;;;17.80;82.50;;;;;;5094000;28;20051;-73
2022/04/19 12:32:51;;;;;;;1.73;0.88;;;17.70;82.90;;;;;;5094700;28;20479;-73
2022/04/19 12:35:21;;;;;;;3.33;0.90;;;17.60;83.10;;;;;;5094323;28;20044;-73
2022/04/19 12:38:05;;;;;;;0.98;0.50;;;17.60;82.90;;;;;;5094053;28;20052;-74
2022/04/19 12:40:31;;;;;;;1.42;0.98;;;17.70;82.10;;;;;;5094324;28;20040;-75
2022/04/19 12:42:57;;;;;;;2.17;0.70;;;17.50;81.60;;;;;;5060694;28;20052;-72
2022/04/19 12:45:29;;;;;;;1.40;1.00;;;17.60;83.50;;;;;;5076767;28;20042;-73
2022/04/19 12:47:57;;;;;;;1.02;0.70;;;17.70;83.00;;;;;;5093163;28;20040;-73
2022/04/19 12:50:23;;;;;;;1.20;0.90;;;17.70;82.60;;;;;;5077452;28;20093;-73
2022/04/19 12:52:49;;;;;;;1.85;0.90;;;17.80;82.80;;;;;;5093796;28;20032;-72
2022/04/19 12:55:15;;;;;;;2.95;1.38;;;17.70;82.60;;;;;;5093978;28;20403;-72
2022/04/19 12:57:45;;;;;;;1.83;0.80;;;17.80;82.10;;;;;;5093643;28;20090;-73
2022/04/19 13:00:11;;;;;;;1.63;1.02;;;17.60;82.50;;;;;;5077253;28;20044;-73
2022/04/19 13:02:38;;;;;;;1.58;1.00;;;17.70;81.30;;;;;;5076717;28;20051;-72
2022/04/19 13:05:04;;;;;;;1.67;1.00;;;17.60;82.50;;;;;;5093441;28;20040;-74
2022/04/19 13:13:05;;;;;;;3.00;1.40;;;17.80;84.00;;;;;;5093566;28;20036;-74
2022/04/19 13:15:35;;;;;;;1.83;0.93;;;17.80;82.60;;;;;;5059686;28;20059;-73
2022/04/19 13:18:02;;;;;;;1.80;0.80;;;17.90;81.00;;;;;;5093218;28;20036;-73
2022/04/19 13:20:28;;;;;;;2.38;1.50;;;18.10;84.00;;;;;;5093403;28;20052;-73
2022/04/19 13:22:54;;;;;;;1.40;0.90;;;18.20;83.90;;;;;;5092849;28;20047;-73
2022/04/19 13:25:20;;;;;;;2.13;0.80;;;18.30;83.30;;;;;;5076171;28;20386;-72
2022/04/19 13:27:47;;;;;;;2.50;1.10;;;18.40;83.90;;;;;;5092608;28;20052;-72
2022/04/19 13:30:16;;;;;;;2.72;1.20;;;18.40;81.90;;;;;;5093021;28;20511;-73
2022/04/19 13:32:42;;;;;;;1.38;0.90;;;18.30;82.00;;;;;;5092697;28;20086;-73
2022/04/19 13:35:09;;;;;;;1.40;0.73;;;18.30;80.50;;;;;;5076175;28;20444;-74
2022/04/19 13:40:20;;;;;;;0.70;0.70;;;18.20;81.50;;;;;;5092679;28;20113;-73
2022/04/19 13:42:46;;;;;;;0.93;0.80;;;18.00;80.80;;;;;;5092782;28;20047;-73